Time;durP1;ratioP1;P1;durP2;ratioP2;P2;SDS_P1;SDS_P2;PMS_P1;PMS_P2;Temp;Humidity;BMP_temperature;BMP_pressure;BME280_temperature;BME280_humidity;BME280_pressure;Samples;Min_cycle;Max_cycle;Signal;HPM_P1;HPM_P2
2021/04/28 14:41:22;;;;;;;8.15;2.85;;;28.00;22.70;;;;;;5047998;28;20040;-87
2021/04/28 14:47:11;;;;;;;6.15;2.47;;;28.10;22.60;;;;;;5047388;28;20655;-90
2021/04/28 14:53:00;;;;;;;8.98;3.10;;;28.00;22.10;;;;;;5047394;28;20031;-85
2021/04/28 14:58:48;;;;;;;6.57;2.90;;;27.70;22.00;;;;;;5047474;28;20033;-87
2021/04/28 15:04:37;;;;;;;14.98;9.55;;;27.50;22.10;;;;;;5047242;28;20070;-88
2021/04/28 15:10:25;;;;;;;6.82;3.50;;;27.50;22.20;;;;;;5047044;28;20483;-89
2021/04/28 15:16:14;;;;;;;6.53;2.92;;;27.60;22.20;;;;;;5046789;28;20183;-88
2021/04/28 15:22:03;;;;;;;7.32;2.95;;;27.60;22.20;;;;;;5047232;28;20036;-88
2021/04/28 15:27:52;;;;;;;6.90;2.70;;;27.40;22.10;;;;;;5047053;28;20097;-87
2021/04/28 15:33:40;;;;;;;8.35;2.90;;;27.30;22.20;;;;;;5047256;28;20073;-88
2021/04/28 15:43:30;;;;;;;9.48;2.90;;;27.70;22.60;;;;;;5047438;28;20041;-85
2021/04/28 15:49:18;;;;;;;5.50;2.60;;;28.70;23.30;;;;;;5034181;28;20392;-86
2021/04/28 15:55:08;;;;;;;5.75;2.58;;;30.40;24.20;;;;;;5033401;28;20027;-85
2021/04/28 16:00:58;;;;;;;6.53;2.70;;;31.10;23.20;;;;;;5033761;28;20056;-83
2021/04/28 16:06:46;;;;;;;10.52;3.78;;;30.70;23.10;;;;;;5033258;28;20090;-86
2021/04/28 16:12:34;;;;;;;5.60;2.50;;;30.20;22.10;;;;;;5033179;28;20037;-85
2021/04/28 16:18:31;;;;;;;6.13;2.30;;;29.00;22.00;;;;;;5032990;28;20092;-86
2021/04/28 16:24:23;;;;;;;5.70;2.50;;;28.30;21.80;;;;;;5032892;28;20053;-87
2021/04/28 16:30:13;;;;;;;5.20;2.47;;;27.50;21.60;;;;;;5032772;28;20124;-87
2021/04/28 16:36:02;;;;;;;4.60;2.40;;;26.90;21.80;;;;;;5032519;28;20048;-87
2021/04/28 16:45:49;;;;;;;4.65;2.40;;;27.50;22.80;;;;;;5034013;28;20040;-86
2021/04/28 16:51:37;;;;;;;6.68;2.55;;;27.50;22.40;;;;;;5032468;28;20081;-86
2021/04/28 16:57:26;;;;;;;7.28;2.92;;;27.10;22.10;;;;;;5032193;28;20476;-86
2021/04/28 17:03:14;;;;;;;6.68;2.95;;;27.00;22.30;;;;;;5031819;28;20032;-87
2021/04/28 17:09:02;;;;;;;6.60;2.92;;;27.10;22.80;;;;;;5032537;28;20028;-84
2021/04/28 17:14:50;;;;;;;10.18;4.60;;;27.20;22.30;;;;;;5032172;28;20045;-87
2021/04/28 17:20:38;;;;;;;6.28;2.90;;;26.50;22.20;;;;;;5032177;28;20040;-87
2021/04/28 17:26:26;;;;;;;7.75;3.50;;;25.90;22.00;;;;;;5032067;28;20104;-85
2021/04/28 17:32:14;;;;;;;10.35;3.00;;;25.00;21.80;;;;;;5031578;28;20094;-86
2021/04/28 17:38:04;;;;;;;7.70;2.70;;;24.20;22.00;;;;;;5031554;28;20090;-86
2021/04/28 17:47:47;;;;;;;5.78;2.90;;;23.20;22.00;;;;;;5031745;28;20128;-86
2021/04/28 17:53:36;;;;;;;9.35;3.08;;;22.50;22.10;;;;;;5031315;28;20052;-89
2021/04/28 17:59:25;;;;;;;8.23;3.00;;;21.80;22.40;;;;;;5031338;28;20036;-87
2021/04/28 18:05:18;;;;;;;5.90;2.60;;;21.40;22.50;;;;;;5031124;28;20033;-87
2021/04/28 18:11:07;;;;;;;6.47;2.72;;;21.10;22.70;;;;;;5030567;28;20032;-87
2021/04/28 18:16:55;;;;;;;6.57;2.78;;;20.90;22.80;;;;;;5030999;28;20452;-86
2021/04/28 18:22:48;;;;;;;6.25;2.63;;;20.50;22.70;;;;;;5030951;28;20077;-85
2021/04/28 18:28:38;;;;;;;8.55;3.03;;;20.10;22.90;;;;;;5030897;28;20048;-88
2021/04/28 18:34:27;;;;;;;7.68;3.00;;;19.70;22.90;;;;;;5030671;28;20101;-88
2021/04/28 18:40:17;;;;;;;5.15;2.70;;;19.30;23.00;;;;;;5030976;28;20048;-88
2021/04/28 18:50:00;;;;;;;8.50;2.95;;;18.80;23.10;;;;;;5030807;28;20037;-88
2021/04/28 18:55:49;;;;;;;7.03;3.00;;;18.50;23.30;;;;;;5030847;28;20434;-89
2021/04/28 19:01:38;;;;;;;6.90;2.70;;;18.30;23.40;;;;;;5030735;28;20064;-85
2021/04/28 19:07:27;;;;;;;8.82;3.00;;;18.10;23.60;;;;;;5030305;28;20082;-90
2021/04/28 19:13:15;;;;;;;8.25;2.97;;;17.90;23.60;;;;;;5031657;28;20073;-90
2021/04/28 19:19:04;;;;;;;7.22;3.63;;;17.70;23.70;;;;;;5030519;28;20121;-90
2021/04/28 19:24:52;;;;;;;7.00;3.13;;;17.40;23.80;;;;;;5033838;28;20479;-90
2021/04/28 19:30:41;;;;;;;8.40;3.10;;;17.10;23.90;;;;;;5033400;28;20033;-90
2021/04/28 19:36:31;;;;;;;8.90;3.30;;;16.80;24.00;;;;;;5033723;28;20353;-89
2021/04/28 19:42:20;;;;;;;7.35;3.40;;;16.60;24.10;;;;;;5033692;28;20028;-90
2021/04/28 19:52:04;;;;;;;8.20;3.38;;;16.20;24.20;;;;;;5034011;28;20036;-89
2021/04/28 19:57:52;;;;;;;7.82;3.40;;;16.00;24.40;;;;;;5048331;28;20086;-88
2021/04/28 20:03:40;;;;;;;9.23;3.60;;;15.70;24.50;;;;;;5048021;27;20099;-88
2021/04/28 20:09:30;;;;;;;8.00;3.60;;;15.50;24.60;;;;;;5044717;27;20461;-93
2021/04/28 20:15:18;;;;;;;8.38;3.53;;;15.30;24.80;;;;;;5034738;28;20165;-92
2021/04/28 20:21:08;;;;;;;13.38;3.65;;;15.10;24.90;;;;;;5033580;28;20056;-92
2021/04/28 20:26:56;;;;;;;9.95;4.10;;;14.80;25.00;;;;;;5033774;28;20050;-92
2021/04/28 20:33:39;;;;;;;;;;;;;;;;;;;;;
2021/04/28 20:39:54;;;;;;;11.07;4.57;;;14.40;25.30;;;;;;5032557;28;20063;-90
2021/04/28 20:45:46;;;;;;;9.43;4.30;;;14.30;25.50;;;;;;5054097;28;20049;-87
2021/04/28 20:55:35;;;;;;;12.35;4.63;;;13.90;25.60;;;;;;5032468;28;20429;-88
2021/04/28 21:01:24;;;;;;;11.50;4.57;;;13.70;25.80;;;;;;5032512;28;20059;-88
2021/04/28 21:07:12;;;;;;;10.10;4.43;;;13.70;26.00;;;;;;5032365;28;20044;-89
2021/04/28 21:13:02;;;;;;;9.55;4.57;;;13.50;26.10;;;;;;5031970;28;20079;-88
2021/04/28 21:18:50;;;;;;;8.63;4.40;;;13.30;26.20;;;;;;5031946;28;20590;-87
2021/04/28 21:24:44;;;;;;;10.02;5.18;;;13.20;26.40;;;;;;5031976;28;20093;-88
2021/04/28 21:30:33;;;;;;;9.57;4.60;;;13.00;26.50;;;;;;5031625;28;20079;-88
2021/04/28 21:36:21;;;;;;;9.63;5.05;;;13.00;26.60;;;;;;5031434;28;20474;-87
2021/04/28 21:42:10;;;;;;;9.20;4.80;;;12.80;26.70;;;;;;5031720;28;20113;-87
2021/04/28 21:47:58;;;;;;;11.30;4.60;;;12.70;26.90;;;;;;5031596;28;20560;-86
2021/04/28 21:57:49;;;;;;;11.52;4.28;;;12.50;27.00;;;;;;5031504;28;20092;-85
2021/04/28 22:03:38;;;;;;;9.95;4.78;;;12.30;27.10;;;;;;5031473;28;20037;-85
2021/04/28 22:09:27;;;;;;;11.38;4.93;;;12.20;27.30;;;;;;5031284;28;20032;-85
2021/04/28 22:15:16;;;;;;;9.77;4.45;;;12.30;27.60;;;;;;5031058;28;20025;-87
2021/04/28 22:21:05;;;;;;;13.48;5.20;;;12.30;27.70;;;;;;5031064;28;20040;-85
2021/04/28 22:26:54;;;;;;;11.73;5.32;;;12.30;27.80;;;;;;5031177;28;20427;-85
2021/04/28 22:32:43;;;;;;;9.23;4.88;;;12.40;28.00;;;;;;5030910;28;20391;-85
2021/04/28 22:38:31;;;;;;;8.80;4.72;;;12.50;28.10;;;;;;5030762;28;20408;-87
2021/04/28 22:44:20;;;;;;;10.15;5.13;;;12.60;28.30;;;;;;5030844;28;20048;-85
2021/04/28 22:50:09;;;;;;;9.02;3.95;;;12.60;28.30;;;;;;5030792;28;20032;-85
2021/04/28 22:59:51;;;;;;;8.40;4.25;;;12.70;28.50;;;;;;5034260;28;20044;-86
2021/04/28 23:05:40;;;;;;;7.22;3.70;;;12.90;28.90;;;;;;5033902;28;20132;-86
2021/04/28 23:11:28;;;;;;;6.05;3.20;;;13.40;29.40;;;;;;5034114;28;20436;-85
2021/04/28 23:17:18;;;;;;;8.65;3.80;;;13.90;29.50;;;;;;5033657;28;20040;-85
2021/04/28 23:23:07;;;;;;;6.15;3.15;;;14.40;29.90;;;;;;5033881;28;20044;-86
2021/04/28 23:28:55;;;;;;;7.45;3.47;;;14.60;30.00;;;;;;5033619;28;20037;-86
2021/04/28 23:34:44;;;;;;;7.60;3.58;;;14.80;30.20;;;;;;5033599;28;20037;-87
2021/04/28 23:40:32;;;;;;;8.63;4.05;;;14.80;30.40;;;;;;5033306;28;20052;-87
2021/04/28 23:46:21;;;;;;;8.77;3.83;;;14.80;30.50;;;;;;5033250;28;20431;-86
2021/04/28 23:52:10;;;;;;;8.05;3.90;;;14.80;31.20;;;;;;5033344;28;20031;-87
